createdAt,value
2022-08-22T00:00:16.010Z,97827.16
2022-08-22T00:03:15.188Z,97836.53
2022-08-22T00:05:44.601Z,97838.88
2022-08-22T00:08:23.095Z,97838.47
2022-08-22T00:11:08.156Z,97838.03
2022-08-22T00:14:07.338Z,97840.47
2022-08-22T00:16:53.480Z,97840.56
2022-08-22T00:19:52.006Z,97845.41
2022-08-22T00:22:45.299Z,97842.75
2022-08-22T00:25:26.245Z,97840.28
2022-08-22T00:28:18.500Z,97833.75
2022-08-22T00:30:50.964Z,97836.09
2022-08-22T00:33:30.757Z,97837.13
2022-08-22T00:36:09.459Z,97841.28
2022-08-22T00:38:45.059Z,97837.50
2022-08-22T00:41:30.522Z,97842.50
2022-08-22T00:44:30.865Z,97843.25
2022-08-22T00:47:18.813Z,97847.41
2022-08-22T00:50:22.120Z,97842.53
2022-08-22T00:53:30.901Z,97845.97
2022-08-22T00:56:16.076Z,97844.66
2022-08-22T00:58:42.630Z,97850.97
2022-08-22T01:01:13.617Z,97839.06
2022-08-22T01:03:49.392Z,97851.38
2022-08-22T01:06:43.662Z,97840.91
2022-08-22T01:09:22.155Z,97845.47
2022-08-22T01:12:11.584Z,97849.84
2022-08-22T01:14:41.186Z,97852.88
2022-08-22T01:17:26.146Z,97853.34
2022-08-22T01:20:29.429Z,97841.91
2022-08-22T01:23:01.778Z,97831.72
2022-08-22T01:25:49.981Z,97839.06
2022-08-22T01:28:54.489Z,97843.84
2022-08-22T01:31:46.030Z,97846.66
2022-08-22T01:34:49.816Z,97850.19
2022-08-22T01:37:59.915Z,97842.75
2022-08-22T01:40:53.890Z,97842.53
2022-08-22T01:43:59.818Z,97843.59
2022-08-22T01:47:06.897Z,97844.88
2022-08-22T01:49:33.613Z,97852.88
2022-08-22T01:52:36.980Z,97854.00
2022-08-22T01:55:30.176Z,97850.19
2022-08-22T01:58:03.698Z,97845.81
2022-08-22T02:00:51.866Z,97851.19
2022-08-22T02:03:42.593Z,97848.88
2022-08-22T02:06:17.086Z,97852.13
2022-08-22T02:08:58.979Z,97839.69
2022-08-22T02:11:52.559Z,97854.41
2022-08-22T02:14:31.593Z,97848.09
2022-08-22T02:17:17.380Z,97846.16
2022-08-22T02:19:57.622Z,97841.78
2022-08-22T02:22:53.348Z,97844.97
2022-08-22T02:25:32.646Z,97841.16
2022-08-22T02:28:08.328Z,97848.81
2022-08-22T02:30:50.984Z,97832.94
2022-08-22T02:33:49.165Z,97846.38
2022-08-22T02:36:49.608Z,97843.00
2022-08-22T02:39:22.054Z,97839.75
2022-08-22T02:41:59.940Z,97839.06
2022-08-22T02:44:39.081Z,97849.53
2022-08-22T02:47:09.534Z,97847.25
2022-08-22T02:49:48.554Z,97834.41
2022-08-22T02:52:41.267Z,97831.44
2022-08-22T02:55:15.846Z,97828.00
2022-08-22T02:57:52.461Z,97835.84
2022-08-22T03:00:32.789Z,97828.84
2022-08-22T03:03:14.971Z,97825.88
2022-08-22T03:05:44.304Z,97822.19
2022-08-22T03:08:17.060Z,97819.31
2022-08-22T03:10:56.618Z,97826.13
2022-08-22T03:13:33.603Z,97823.13
2022-08-22T03:16:10.458Z,97817.88
2022-08-22T03:18:43.093Z,97826.06
2022-08-22T03:21:24.488Z,97818.38
2022-08-22T03:24:01.088Z,97823.28
2022-08-22T03:26:43.857Z,97828.81
2022-08-22T03:29:36.779Z,97819.63
2022-08-22T03:32:16.654Z,97818.03
2022-08-22T03:35:08.635Z,97819.88
2022-08-22T03:37:35.182Z,97822.81
2022-08-22T03:40:19.951Z,97823.31
2022-08-22T03:43:04.696Z,97812.88
2022-08-22T03:45:38.477Z,97828.59
2022-08-22T03:48:16.404Z,97826.66
2022-08-22T03:51:34.190Z,97833.34
2022-08-22T03:54:35.549Z,97822.94
2022-08-22T03:57:22.456Z,97826.69
2022-08-22T04:00:21.297Z,97831.56
2022-08-22T04:03:38.373Z,97821.97
2022-08-22T04:06:25.420Z,97827.13
2022-08-22T04:09:25.332Z,97832.88
2022-08-22T04:12:22.653Z,97830.78
2022-08-22T04:15:19.299Z,97819.97
2022-08-22T04:18:04.609Z,97836.97
2022-08-22T04:21:06.097Z,97837.47
2022-08-22T04:23:41.117Z,97827.03
2022-08-22T04:26:13.753Z,97837.03
2022-08-22T04:28:48.080Z,97826.25
2022-08-22T04:31:22.476Z,97841.75
2022-08-22T04:34:01.416Z,97830.63
2022-08-22T04:36:45.380Z,97840.78
2022-08-22T04:39:20.406Z,97840.63
2022-08-22T04:41:53.444Z,97842.38
2022-08-22T04:44:29.954Z,97846.94
2022-08-22T04:47:06.264Z,97846.09
2022-08-22T04:49:38.556Z,97848.09
2022-08-22T04:52:37.095Z,97850.88
2022-08-22T04:55:24.851Z,97848.78
2022-08-22T04:58:10.847Z,97854.50
2022-08-22T05:00:49.536Z,97856.97
2022-08-22T05:03:21.724Z,97851.78
2022-08-22T05:05:50.393Z,97856.81
2022-08-22T05:08:23.547Z,97867.91
2022-08-22T05:10:52.070Z,97862.22
2022-08-22T05:13:24.996Z,97859.41
2022-08-22T05:15:59.064Z,97856.50
2022-08-22T05:18:36.374Z,97875.88
2022-08-22T05:21:08.513Z,97871.16
2022-08-22T05:23:40.269Z,97872.81
2022-08-22T05:26:08.104Z,97872.47
2022-08-22T05:28:45.472Z,97871.00
2022-08-22T05:31:23.170Z,97881.00
2022-08-22T05:33:58.691Z,97875.63
2022-08-22T05:36:43.763Z,97882.94
2022-08-22T05:39:14.603Z,97880.97
2022-08-22T05:41:42.074Z,97880.75
2022-08-22T05:44:23.294Z,97873.06
2022-08-22T05:46:59.897Z,97881.19
2022-08-22T05:49:38.866Z,97887.72
2022-08-22T05:52:30.082Z,97881.34
2022-08-22T05:55:07.144Z,97873.53
2022-08-22T05:57:38.364Z,97883.16
2022-08-22T06:00:10.110Z,97887.69
2022-08-22T06:03:08.076Z,97894.56
2022-08-22T06:05:46.446Z,97885.09
2022-08-22T06:08:34.330Z,97881.16
2022-08-22T06:11:12.020Z,97880.28
2022-08-22T06:13:47.356Z,97881.75
2022-08-22T06:16:27.440Z,97881.47
2022-08-22T06:18:56.255Z,97872.59
2022-08-22T06:21:37.644Z,97870.31
2022-08-22T06:24:09.564Z,97885.09
2022-08-22T06:26:40.170Z,97877.59
2022-08-22T06:29:08.746Z,97882.97
2022-08-22T06:31:44.520Z,97894.53
2022-08-22T06:34:14.679Z,97882.50
2022-08-22T06:36:45.967Z,97881.00
2022-08-22T06:39:23.577Z,97891.22
2022-08-22T06:42:14.535Z,97892.19
2022-08-22T06:45:16.549Z,97895.41
2022-08-22T06:47:52.167Z,97894.88
2022-08-22T06:50:33.942Z,97896.16
2022-08-22T06:53:20.224Z,97896.28
2022-08-22T06:55:52.574Z,97896.72
2022-08-22T06:58:26.782Z,97895.91
2022-08-22T07:01:11.806Z,97893.56
2022-08-22T07:03:43.862Z,97894.41
2022-08-22T07:06:17.310Z,97886.81
2022-08-22T07:08:44.970Z,97889.91
2022-08-22T07:11:27.499Z,97891.00
2022-08-22T07:13:58.705Z,97901.94
2022-08-22T07:16:34.597Z,97896.34
2022-08-22T07:19:01.993Z,97886.31
2022-08-22T07:21:45.759Z,97890.84
2022-08-22T07:24:24.831Z,97887.69
2022-08-22T07:27:04.826Z,97899.63
2022-08-22T07:29:48.110Z,97899.56
2022-08-22T07:32:23.972Z,97897.03
2022-08-22T07:35:04.512Z,97903.63
2022-08-22T07:38:04.283Z,97900.28
2022-08-22T07:40:58.813Z,97887.00
2022-08-22T07:43:56.812Z,97891.59
2022-08-22T07:46:35.939Z,97892.94
2022-08-22T07:49:09.995Z,97887.78
2022-08-22T07:51:45.008Z,97875.59
2022-08-22T07:54:15.510Z,97885.06
2022-08-22T07:56:50.296Z,97885.13
2022-08-22T07:59:20.561Z,97890.47
2022-08-22T08:01:53.427Z,97882.44
2022-08-22T08:04:27.337Z,97887.28
2022-08-22T08:06:57.659Z,97893.41
2022-08-22T08:09:29.786Z,97881.75
2022-08-22T08:11:59.374Z,97883.38
2022-08-22T08:14:27.198Z,97879.00
2022-08-22T08:17:03.717Z,97880.06
2022-08-22T08:19:33.353Z,97882.69
2022-08-22T08:22:00.207Z,97877.06
2022-08-22T08:24:39.992Z,97875.44
2022-08-22T08:27:33.529Z,97871.25
2022-08-22T08:30:17.466Z,97878.03
2022-08-22T08:32:51.019Z,97872.66
2022-08-22T08:35:28.728Z,97869.53
2022-08-22T08:38:20.428Z,97868.25
2022-08-22T08:41:02.032Z,97869.31
2022-08-22T08:43:56.451Z,97870.09
2022-08-22T08:46:55.882Z,97864.03
2022-08-22T08:49:42.143Z,97859.66
2022-08-22T08:52:19.574Z,97856.72
2022-08-22T08:54:58.336Z,97853.53
2022-08-22T08:57:55.843Z,97850.09
2022-08-22T09:00:30.311Z,97846.94
2022-08-22T09:03:51.535Z,97850.00
2022-08-22T09:06:42.984Z,97838.88
2022-08-22T09:09:34.884Z,97835.53
2022-08-22T09:12:14.772Z,97836.38
2022-08-22T09:14:58.450Z,97834.78
2022-08-22T09:17:57.756Z,97824.09
2022-08-22T09:20:32.289Z,97817.81
2022-08-22T09:23:16.945Z,97816.81
2022-08-22T09:26:01.077Z,97813.00
2022-08-22T09:28:56.808Z,97814.63
2022-08-22T09:31:48.217Z,97805.91
2022-08-22T09:34:25.686Z,97814.03
2022-08-22T09:37:35.215Z,97804.94
2022-08-22T09:40:09.827Z,97807.16
2022-08-22T09:43:11.016Z,97804.72
2022-08-22T09:45:38.218Z,97799.72
2022-08-22T09:48:30.446Z,97801.34
2022-08-22T09:51:33.845Z,97797.72
2022-08-22T09:54:31.396Z,97795.47
2022-08-22T09:57:22.594Z,97791.63
2022-08-22T10:00:09.996Z,97792.81
2022-08-22T10:03:02.018Z,97792.22
2022-08-22T10:06:02.524Z,97788.31
2022-08-22T10:08:56.723Z,97781.22
2022-08-22T10:11:42.184Z,97770.69
2022-08-22T10:14:22.331Z,97767.25
2022-08-22T10:17:02.440Z,97772.53
2022-08-22T10:19:50.342Z,97769.69
2022-08-22T10:22:39.412Z,97758.09
2022-08-22T10:25:48.081Z,97753.41
2022-08-22T10:28:41.980Z,97752.81
2022-08-22T10:31:26.212Z,97752.31
2022-08-22T10:33:59.374Z,97741.16
2022-08-22T10:36:49.795Z,97743.16
2022-08-22T10:39:24.856Z,97744.59
2022-08-22T10:42:20.141Z,97743.94
2022-08-22T10:45:08.105Z,97741.50
2022-08-22T10:47:41.933Z,97725.81
2022-08-22T10:50:20.107Z,97728.44
2022-08-22T10:53:16.711Z,97730.81
2022-08-22T10:55:47.232Z,97730.53
2022-08-22T10:58:24.404Z,97718.09
2022-08-22T11:00:55.074Z,97722.75
2022-08-22T11:04:06.980Z,97725.16
2022-08-22T11:06:59.698Z,97717.25
2022-08-22T11:09:42.041Z,97718.81
2022-08-22T11:12:34.673Z,97716.69
2022-08-22T11:15:09.840Z,97713.38
2022-08-22T11:18:02.612Z,97725.78
2022-08-22T11:20:56.627Z,97722.78
2022-08-22T11:23:23.263Z,97714.66
2022-08-22T11:26:05.011Z,97723.13
2022-08-22T11:29:17.201Z,97710.72
2022-08-22T11:32:05.671Z,97717.38
2022-08-22T11:34:57.462Z,97715.53
2022-08-22T11:37:46.834Z,97710.41
2022-08-22T11:40:35.875Z,97714.44
2022-08-22T11:43:28.878Z,97717.59
2022-08-22T11:46:15.740Z,97706.75
2022-08-22T11:49:06.392Z,97706.09
2022-08-22T11:51:58.531Z,97703.16
2022-08-22T11:54:42.064Z,97701.09
2022-08-22T11:57:16.250Z,97699.41
2022-08-22T11:59:43.363Z,97692.06
2022-08-22T12:02:26.384Z,97678.03
2022-08-22T12:04:59.663Z,97680.41
2022-08-22T12:07:32.544Z,97674.97
2022-08-22T12:10:04.778Z,97670.72
2022-08-22T12:12:31.394Z,97668.06
2022-08-22T12:15:21.623Z,97662.63
2022-08-22T12:18:25.523Z,97666.22
2022-08-22T12:21:16.001Z,97664.19
2022-08-22T12:24:06.018Z,97661.75
2022-08-22T12:27:18.187Z,97654.06
2022-08-22T12:30:03.660Z,97656.81
2022-08-22T12:32:58.879Z,97651.75
2022-08-22T12:35:53.646Z,97642.94
2022-08-22T12:38:29.086Z,97640.88
2022-08-22T12:41:35.343Z,97639.44
2022-08-22T12:44:16.489Z,97633.34
2022-08-22T12:47:21.473Z,97627.72
2022-08-22T12:50:13.118Z,97631.25
2022-08-22T12:53:15.905Z,97627.97
2022-08-22T12:56:14.482Z,97622.69
2022-08-22T12:59:02.658Z,97617.47
2022-08-22T13:01:38.389Z,97614.16
2022-08-22T13:04:29.686Z,97612.44
2022-08-22T13:07:07.328Z,97605.88
2022-08-22T13:09:38.771Z,97604.19
2022-08-22T13:12:20.074Z,97599.91
2022-08-22T13:14:52.138Z,97600.72
2022-08-22T13:17:24.084Z,97595.00
2022-08-22T13:19:56.960Z,97597.53
2022-08-22T13:22:29.097Z,97590.66
2022-08-22T13:25:04.880Z,97584.66
2022-08-22T13:27:51.359Z,97593.28
2022-08-22T13:30:29.034Z,97586.03
2022-08-22T13:33:04.695Z,97583.16
2022-08-22T13:35:52.600Z,97578.56
2022-08-22T13:38:27.633Z,97580.41
2022-08-22T13:40:57.205Z,97580.97
2022-08-22T13:43:31.197Z,97574.19
2022-08-22T13:46:02.441Z,97582.81
2022-08-22T13:48:46.699Z,97573.25
2022-08-22T13:51:28.832Z,97564.88
2022-08-22T13:54:19.697Z,97569.59
2022-08-22T13:56:57.161Z,97559.34
2022-08-22T13:59:52.544Z,97563.59
2022-08-22T14:02:30.837Z,97561.06
2022-08-22T14:05:05.598Z,97548.88
2022-08-22T14:07:38.811Z,97555.31
2022-08-22T14:10:18.982Z,97552.53
2022-08-22T14:12:55.094Z,97549.69
2022-08-22T14:15:26.246Z,97545.88
2022-08-22T14:18:11.458Z,97532.28
2022-08-22T14:20:40.168Z,97536.66
2022-08-22T14:23:29.289Z,97534.56
2022-08-22T14:25:57.409Z,97532.50
2022-08-22T14:28:27.318Z,97543.69
2022-08-22T14:31:02.825Z,97536.31
2022-08-22T14:33:40.914Z,97530.56
2022-08-22T14:36:22.209Z,97525.75
2022-08-22T14:39:02.360Z,97530.88
2022-08-22T14:42:12.346Z,97532.50
2022-08-22T14:44:48.874Z,97537.66
2022-08-22T14:47:52.779Z,97534.06
2022-08-22T14:50:39.389Z,97534.19
2022-08-22T14:53:10.244Z,97538.91
2022-08-22T14:55:39.289Z,97530.50
2022-08-22T14:58:16.356Z,97520.03
2022-08-22T15:00:46.509Z,97524.06
2022-08-22T15:03:27.615Z,97526.72
2022-08-22T15:05:57.485Z,97511.75
2022-08-22T15:08:27.917Z,97510.59
2022-08-22T15:11:13.052Z,97516.66
2022-08-22T15:13:48.772Z,97509.31
2022-08-22T15:16:32.089Z,97511.38
2022-08-22T15:19:00.028Z,97510.34
2022-08-22T15:21:38.738Z,97507.09
2022-08-22T15:24:13.949Z,97508.25
2022-08-22T15:26:51.237Z,97504.91
2022-08-22T15:29:22.420Z,97511.09
2022-08-22T15:31:52.491Z,97511.75
2022-08-22T15:34:45.969Z,97491.38
2022-08-22T15:37:18.906Z,97509.41
2022-08-22T15:40:11.592Z,97503.78
2022-08-22T15:42:48.609Z,97509.88
2022-08-22T15:45:33.995Z,97517.38
2022-08-22T15:48:04.475Z,97510.22
2022-08-22T15:50:38.780Z,97511.00
2022-08-22T15:53:41.374Z,97501.22
2022-08-22T15:56:16.634Z,97514.13
2022-08-22T15:58:48.633Z,97508.59
2022-08-22T16:01:20.823Z,97510.69
2022-08-22T16:04:01.935Z,97512.19
2022-08-22T16:06:58.149Z,97513.94
2022-08-22T16:09:46.629Z,97508.53
2022-08-22T16:12:51.743Z,97504.66
2022-08-22T16:15:55.755Z,97508.84
2022-08-22T16:18:43.514Z,97510.59
2022-08-22T16:21:17.931Z,97511.38
2022-08-22T16:23:54.054Z,97517.69
2022-08-22T16:26:30.568Z,97519.22
2022-08-22T16:29:02.117Z,97513.00
2022-08-22T16:31:37.661Z,97510.72
2022-08-22T16:34:16.738Z,97512.88
2022-08-22T16:37:23.249Z,97515.53
2022-08-22T16:39:58.403Z,97502.75
2022-08-22T16:42:38.226Z,97506.31
2022-08-22T16:45:29.686Z,97512.88
2022-08-22T16:47:58.276Z,97503.91
2022-08-22T16:50:34.014Z,97508.63
2022-08-22T16:53:10.206Z,97506.91
2022-08-22T16:55:43.894Z,97511.44
2022-08-22T16:58:44.910Z,97510.97
2022-08-22T17:01:16.603Z,97504.06
2022-08-22T17:04:10.823Z,97511.03
2022-08-22T17:06:55.470Z,97514.03
2022-08-22T17:09:45.941Z,97518.44
2022-08-22T17:12:30.888Z,97523.84
2022-08-22T17:15:33.939Z,97517.47
2022-08-22T17:18:34.445Z,97525.66
2022-08-22T17:21:25.831Z,97526.56
2022-08-22T17:24:33.529Z,97530.94
2022-08-22T17:27:07.847Z,97535.50
2022-08-22T17:29:53.822Z,97543.19
2022-08-22T17:32:32.465Z,97548.69
2022-08-22T17:35:09.656Z,97549.56
2022-08-22T17:38:04.032Z,97559.38
2022-08-22T17:40:38.630Z,97561.13
2022-08-22T17:43:14.337Z,97578.41
2022-08-22T17:46:13.658Z,97572.25
2022-08-22T17:48:59.929Z,97574.78
2022-08-22T17:51:38.922Z,97583.41
2022-08-22T17:54:14.566Z,97582.88
2022-08-22T17:57:05.144Z,97572.00
2022-08-22T17:59:55.263Z,97587.53
2022-08-22T18:02:34.603Z,97589.50
2022-08-22T18:05:10.054Z,97590.13
2022-08-22T18:08:04.316Z,97598.22
2022-08-22T18:10:53.802Z,97598.72
2022-08-22T18:13:49.742Z,97596.28
2022-08-22T18:16:16.423Z,97603.38
2022-08-22T18:18:54.134Z,97607.19
2022-08-22T18:21:35.352Z,97617.75
2022-08-22T18:24:22.755Z,97614.06
2022-08-22T18:26:52.846Z,97622.47
2022-08-22T18:29:43.525Z,97627.13
2022-08-22T18:32:26.637Z,97625.75
2022-08-22T18:35:02.792Z,97629.59
2022-08-22T18:37:33.007Z,97636.53
2022-08-22T18:40:13.433Z,97637.34
2022-08-22T18:42:45.486Z,97642.00
2022-08-22T18:45:43.835Z,97639.38
2022-08-22T18:48:34.274Z,97649.09
2022-08-22T18:51:24.296Z,97665.09
2022-08-22T18:53:54.116Z,97664.09
2022-08-22T18:56:50.334Z,97664.28
2022-08-22T18:59:46.600Z,97679.25
2022-08-22T19:02:55.693Z,97673.38
2022-08-22T19:05:33.966Z,97685.31
2022-08-22T19:08:00.981Z,97690.38
2022-08-22T19:10:55.155Z,97693.22
2022-08-22T19:13:42.742Z,97692.41
2022-08-22T19:16:18.137Z,97692.63
2022-08-22T19:18:54.324Z,97694.84
2022-08-22T19:22:00.354Z,97701.28
2022-08-22T19:24:26.907Z,97714.66
2022-08-22T19:27:18.321Z,97718.31
2022-08-22T19:29:44.950Z,97718.50
2022-08-22T19:32:46.726Z,97720.31
2022-08-22T19:35:23.573Z,97717.09
2022-08-22T19:37:54.246Z,97728.81
2022-08-22T19:40:45.543Z,97728.41
2022-08-22T19:43:30.173Z,97722.50
2022-08-22T19:45:59.785Z,97736.00
2022-08-22T19:48:31.521Z,97719.19
2022-08-22T19:51:20.459Z,97740.78
2022-08-22T19:54:08.470Z,97731.06
2022-08-22T19:56:56.295Z,97727.91
2022-08-22T19:59:50.825Z,97741.06
2022-08-22T20:02:37.559Z,97746.81
2022-08-22T20:05:06.894Z,97743.56
2022-08-22T20:07:36.252Z,97741.75
2022-08-22T20:10:09.502Z,97741.16
2022-08-22T20:12:43.761Z,97756.50
2022-08-22T20:15:23.515Z,97758.97
2022-08-22T20:20:56.297Z,97754.00
2022-08-22T20:23:28.304Z,97767.09
2022-08-22T20:25:57.065Z,97761.38
2022-08-22T20:28:33.842Z,97762.34
2022-08-22T20:31:06.100Z,97759.97
2022-08-22T20:33:37.524Z,97765.16
2022-08-22T20:36:27.095Z,97772.69
2022-08-22T20:39:00.289Z,97781.19
2022-08-22T20:41:40.670Z,97773.44
2022-08-22T20:44:29.441Z,97780.66
2022-08-22T20:47:06.047Z,97777.63
2022-08-22T20:49:44.904Z,97778.34
2022-08-22T20:52:42.768Z,97767.00
2022-08-22T20:55:27.339Z,97774.63
2022-08-22T20:58:03.474Z,97781.78
2022-08-22T21:00:35.358Z,97785.16
2022-08-22T21:03:26.721Z,97782.50
2022-08-22T21:05:53.607Z,97781.72
2022-08-22T21:08:24.223Z,97786.81
2022-08-22T21:11:19.758Z,97785.44
2022-08-22T21:13:47.132Z,97780.31
2022-08-22T21:16:18.602Z,97793.28
2022-08-22T21:18:50.812Z,97793.47
2022-08-22T21:21:18.062Z,97800.00
2022-08-22T21:23:48.341Z,97807.50
2022-08-22T21:26:26.340Z,97792.06
2022-08-22T21:29:03.011Z,97805.78
2022-08-22T21:31:36.701Z,97816.94
2022-08-22T21:34:03.572Z,97812.31
2022-08-22T21:36:31.599Z,97810.63
2022-08-22T21:39:03.768Z,97819.94
2022-08-22T21:41:51.498Z,97825.38
2022-08-22T21:44:36.327Z,97821.56
2022-08-22T21:47:30.427Z,97817.41
2022-08-22T21:50:23.153Z,97821.22
2022-08-22T21:52:55.692Z,97823.13
2022-08-22T21:55:52.368Z,97814.19
2022-08-22T21:58:35.510Z,97823.94
2022-08-22T22:01:22.321Z,97826.13
2022-08-22T22:03:51.942Z,97834.53
2022-08-22T22:06:18.493Z,97836.53
2022-08-22T22:08:45.729Z,97845.84
2022-08-22T22:11:14.970Z,97840.34
2022-08-22T22:13:42.429Z,97841.75
2022-08-22T22:16:12.125Z,97849.41
2022-08-22T22:18:39.287Z,97848.25
2022-08-22T22:21:06.051Z,97854.66
2022-08-22T22:23:32.736Z,97854.19
2022-08-22T22:26:02.442Z,97846.00
2022-08-22T22:28:32.276Z,97839.75
2022-08-22T22:30:58.951Z,97846.38
2022-08-22T22:33:31.862Z,97855.13
2022-08-22T22:36:03.939Z,97853.94
2022-08-22T22:38:30.683Z,97849.03
2022-08-22T22:40:57.292Z,97854.22
2022-08-22T22:43:25.939Z,97857.19
2022-08-22T22:45:52.557Z,97863.44
2022-08-22T22:48:24.480Z,97863.88
2022-08-22T22:50:53.396Z,97865.41
2022-08-22T22:53:21.402Z,97861.81
2022-08-22T22:56:05.353Z,97853.94
2022-08-22T22:58:33.345Z,97858.72
2022-08-22T23:01:08.127Z,97867.13
2022-08-22T23:03:34.815Z,97872.88
2022-08-22T23:06:01.428Z,97870.16
2022-08-22T23:08:28.169Z,97869.63
2022-08-22T23:10:54.818Z,97859.50
2022-08-22T23:13:21.792Z,97860.44
2022-08-22T23:15:48.367Z,97858.19
2022-08-22T23:18:15.172Z,97865.59
2022-08-22T23:20:41.757Z,97866.00
2022-08-22T23:23:08.410Z,97872.59
2022-08-22T23:25:35.273Z,97863.75
2022-08-22T23:28:02.597Z,97878.47
2022-08-22T23:30:30.325Z,97877.16
2022-08-22T23:32:56.994Z,97884.59
2022-08-22T23:35:23.509Z,97880.44
2022-08-22T23:37:50.189Z,97886.41
2022-08-22T23:40:16.953Z,97886.41
2022-08-22T23:42:43.728Z,97885.97
2022-08-22T23:45:10.498Z,97883.84
2022-08-22T23:47:37.304Z,97883.91
2022-08-22T23:50:05.902Z,97889.75
2022-08-22T23:52:33.444Z,97886.69
2022-08-22T23:54:59.954Z,97887.22
2022-08-22T23:57:27.637Z,97890.19
2022-08-22T23:59:57.365Z,97885.13
